createdAt,value
2016-08-23T00:00:47.231Z,1020.02
2016-08-23T00:01:47.289Z,1019.99
2016-08-23T00:02:47.246Z,1019.99
2016-08-23T00:03:47.295Z,1020
2016-08-23T00:04:47.258Z,1019.99
2016-08-23T00:05:47.269Z,1019.99
2016-08-23T00:06:47.409Z,1019.99
2016-08-23T00:07:47.371Z,1019.99
2016-08-23T00:08:47.368Z,1019.98
2016-08-23T00:09:47.309Z,1019.99
2016-08-23T00:10:47.339Z,1019.96
2016-08-23T00:11:47.366Z,1019.96
2016-08-23T00:12:47.349Z,1019.96
2016-08-23T00:13:47.320Z,1019.96
2016-08-23T00:14:47.579Z,1019.98
2016-08-23T00:15:47.334Z,1019.98
2016-08-23T00:16:47.402Z,1020.03
2016-08-23T00:17:47.412Z,1020.07
2016-08-23T00:18:47.379Z,1020.05
2016-08-23T00:19:47.441Z,1020.08
2016-08-23T00:20:47.369Z,1020.11
2016-08-23T00:21:47.388Z,1020.08
2016-08-23T00:22:47.384Z,1020.11
2016-08-23T00:23:47.427Z,1020.08
2016-08-23T00:24:47.399Z,1020.11
2016-08-23T00:25:47.490Z,1020.09
2016-08-23T00:26:47.489Z,1020.12
2016-08-23T00:27:47.417Z,1020.12
2016-08-23T00:28:47.484Z,1020.1
2016-08-23T00:29:47.532Z,1020.16
2016-08-23T00:30:47.523Z,1020.11
2016-08-23T00:31:47.537Z,1020.12
2016-08-23T00:32:47.489Z,1020.12
2016-08-23T00:33:47.541Z,1020.15
2016-08-23T00:34:47.548Z,1020.13
2016-08-23T00:35:47.516Z,1020.13
2016-08-23T00:36:47.553Z,1020.14
2016-08-23T00:37:47.576Z,1020.14
2016-08-23T00:38:47.536Z,1020.16
2016-08-23T00:39:47.584Z,1020.17
2016-08-23T00:40:47.509Z,1020.12
2016-08-23T00:41:47.543Z,1020.19
2016-08-23T00:42:47.521Z,1020.15
2016-08-23T00:43:49.130Z,1020.14
2016-08-23T00:44:47.568Z,1020.2
2016-08-23T00:45:47.643Z,1020.16
2016-08-23T00:46:47.631Z,1020.16
2016-08-23T00:47:47.555Z,1020.15
2016-08-23T00:48:47.565Z,1020.14
2016-08-23T00:49:47.571Z,1020.13
2016-08-23T00:50:48.527Z,1020.15
2016-08-23T00:51:47.680Z,1020.18
2016-08-23T00:52:47.666Z,1020.21
2016-08-23T00:53:47.646Z,1020.16
2016-08-23T00:54:47.629Z,1020.16
2016-08-23T00:55:47.681Z,1020.16
2016-08-23T00:56:47.619Z,1020.2
2016-08-23T00:57:47.678Z,1020.2
2016-08-23T00:58:47.631Z,1020.19
2016-08-23T00:59:47.689Z,1020.19
2016-08-23T01:00:47.725Z,1020.16
2016-08-23T01:01:47.667Z,1020.22
2016-08-23T01:02:47.659Z,1020.17
2016-08-23T01:03:47.666Z,1020.18
2016-08-23T01:04:47.767Z,1020.2
2016-08-23T01:05:48.851Z,1020.18
2016-08-23T01:06:47.687Z,1020.16
2016-08-23T01:07:47.693Z,1020.18
2016-08-23T01:08:47.742Z,1020.19
2016-08-23T01:09:47.756Z,1020.18
2016-08-23T01:10:47.768Z,1020.2
2016-08-23T01:11:47.728Z,1020.2
2016-08-23T01:12:47.728Z,1020.18
2016-08-23T01:14:47.741Z,1020.25
2016-08-23T01:15:47.748Z,1020.23
2016-08-23T01:16:47.752Z,1020.25
2016-08-23T01:17:47.775Z,1020.21
2016-08-23T01:18:47.779Z,1020.22
2016-08-23T01:19:47.835Z,1020.22
2016-08-23T01:20:47.858Z,1020.25
2016-08-23T01:21:48.589Z,1020.26
2016-08-23T01:22:47.893Z,1020.24
2016-08-23T01:23:47.802Z,1020.25
2016-08-23T01:24:47.902Z,1020.26
2016-08-23T01:25:47.817Z,1020.26
2016-08-23T01:26:47.823Z,1020.21
2016-08-23T01:27:47.869Z,1020.24
2016-08-23T01:28:47.861Z,1020.24
2016-08-23T01:29:47.911Z,1020.26
2016-08-23T01:30:47.927Z,1020.26
2016-08-23T01:31:47.923Z,1020.22
2016-08-23T01:32:47.954Z,1020.25
2016-08-23T01:33:47.871Z,1020.25
2016-08-23T01:34:47.965Z,1020.28
2016-08-23T01:35:47.964Z,1020.25
2016-08-23T01:36:47.892Z,1020.19
2016-08-23T01:37:47.899Z,1020.23
2016-08-23T01:38:47.906Z,1020.24
2016-08-23T01:39:47.986Z,1020.23
2016-08-23T01:40:47.931Z,1020.26
2016-08-23T01:41:47.926Z,1020.25
2016-08-23T01:42:47.973Z,1020.27
2016-08-23T01:43:48.012Z,1020.28
2016-08-23T01:44:47.947Z,1020.26
2016-08-23T01:45:47.985Z,1020.25
2016-08-23T01:46:48.009Z,1020.31
2016-08-23T01:47:48.018Z,1020.35
2016-08-23T01:48:48.003Z,1020.29
2016-08-23T01:49:47.981Z,1020.33
2016-08-23T01:50:48.076Z,1020.3
2016-08-23T01:51:47.996Z,1020.3
2016-08-23T01:52:48.002Z,1020.3
2016-08-23T01:53:48.094Z,1020.28
2016-08-23T01:54:48.093Z,1020.27
2016-08-23T01:55:48.021Z,1020.31
2016-08-23T01:56:48.052Z,1020.28
2016-08-23T01:57:48.118Z,1020.27
2016-08-23T01:58:48.044Z,1020.27
2016-08-23T01:59:48.058Z,1020.24
2016-08-23T02:00:48.142Z,1020.29
2016-08-23T02:01:48.065Z,1020.25
2016-08-23T02:02:48.069Z,1020.25
2016-08-23T02:03:48.133Z,1020.24
2016-08-23T02:04:48.085Z,1020.19
2016-08-23T02:05:48.115Z,1020.19
2016-08-23T02:06:48.147Z,1020.22
2016-08-23T02:07:48.105Z,1020.24
2016-08-23T02:08:48.112Z,1020.19
2016-08-23T02:09:48.121Z,1020.22
2016-08-23T02:10:48.214Z,1020.23
2016-08-23T02:11:48.197Z,1020.22
2016-08-23T02:12:48.138Z,1020.22
2016-08-23T02:13:48.145Z,1020.17
2016-08-23T02:14:48.200Z,1020.22
2016-08-23T02:15:48.160Z,1020.15
2016-08-23T02:16:48.239Z,1020.2
2016-08-23T02:17:48.212Z,1020.17
2016-08-23T02:18:48.180Z,1020.13
2016-08-23T02:19:48.187Z,1020.15
2016-08-23T02:20:48.193Z,1020.22
2016-08-23T02:21:48.201Z,1020.18
2016-08-23T02:22:48.294Z,1020.2
2016-08-23T02:23:48.215Z,1020.21
2016-08-23T02:24:48.301Z,1020.18
2016-08-23T02:25:48.228Z,1020.18
2016-08-23T02:26:48.237Z,1020.21
2016-08-23T02:27:48.283Z,1020.22
2016-08-23T02:28:48.249Z,1020.27
2016-08-23T02:29:48.272Z,1020.3
2016-08-23T02:30:48.262Z,1020.26
2016-08-23T02:31:48.343Z,1020.29
2016-08-23T02:32:48.276Z,1020.31
2016-08-23T02:33:48.283Z,1020.33
2016-08-23T02:34:48.369Z,1020.31
2016-08-23T02:35:48.296Z,1020.34
2016-08-23T02:36:48.304Z,1020.37
2016-08-23T02:37:48.371Z,1020.33
2016-08-23T02:38:48.368Z,1020.36
2016-08-23T02:39:48.367Z,1020.34
2016-08-23T02:40:49.306Z,1020.33
2016-08-23T02:41:48.428Z,1020.3
2016-08-23T02:42:48.421Z,1020.31
2016-08-23T02:43:48.353Z,1020.35
2016-08-23T02:44:49.167Z,1020.36
2016-08-23T02:45:48.416Z,1020.38
2016-08-23T02:46:48.401Z,1020.4
2016-08-23T02:47:48.379Z,1020.44
2016-08-23T02:48:48.483Z,1020.42
2016-08-23T02:49:49.427Z,1020.43
2016-08-23T02:50:48.398Z,1020.43
2016-08-23T02:51:48.454Z,1020.46
2016-08-23T02:52:48.413Z,1020.46
2016-08-23T02:53:48.504Z,1020.42
2016-08-23T02:54:48.487Z,1020.44
2016-08-23T02:55:48.533Z,1020.44
2016-08-23T02:56:48.441Z,1020.46
2016-08-23T02:57:48.533Z,1020.46
2016-08-23T02:58:48.454Z,1020.47
2016-08-23T02:59:48.549Z,1020.47
2016-08-23T03:00:48.468Z,1020.49
2016-08-23T03:01:48.529Z,1020.5
2016-08-23T03:02:48.530Z,1020.46
2016-08-23T03:03:48.538Z,1020.49
2016-08-23T03:04:48.495Z,1020.44
2016-08-23T03:05:48.502Z,1020.46
2016-08-23T03:06:48.507Z,1020.47
2016-08-23T03:07:48.538Z,1020.42
2016-08-23T03:08:48.521Z,1020.47
2016-08-23T03:09:48.554Z,1020.41
2016-08-23T03:10:48.634Z,1020.4
2016-08-23T03:11:48.591Z,1020.37
2016-08-23T03:12:48.549Z,1020.33
2016-08-23T03:13:48.593Z,1020.38
2016-08-23T03:14:48.665Z,1020.36
2016-08-23T03:15:48.597Z,1020.34
2016-08-23T03:16:48.576Z,1020.34
2016-08-23T03:17:48.583Z,1020.36
2016-08-23T03:18:48.664Z,1020.34
2016-08-23T03:19:48.622Z,1020.31
2016-08-23T03:20:48.604Z,1020.31
2016-08-23T03:21:48.661Z,1020.3
2016-08-23T03:22:48.618Z,1020.3
2016-08-23T03:23:48.696Z,1020.33
2016-08-23T03:24:48.707Z,1020.28
2016-08-23T03:25:48.707Z,1020.29
2016-08-23T03:26:48.644Z,1020.31
2016-08-23T03:27:48.741Z,1020.34
2016-08-23T03:28:48.690Z,1020.3
2016-08-23T03:29:48.667Z,1020.28
2016-08-23T03:30:48.673Z,1020.33
2016-08-23T03:31:48.681Z,1020.32
2016-08-23T03:32:48.760Z,1020.33
2016-08-23T03:33:48.695Z,1020.35
2016-08-23T03:34:48.795Z,1020.32
2016-08-23T03:35:48.742Z,1020.34
2016-08-23T03:36:48.750Z,1020.33
2016-08-23T03:37:48.755Z,1020.3
2016-08-23T03:38:48.808Z,1020.32
2016-08-23T03:39:48.736Z,1020.32
2016-08-23T03:40:48.742Z,1020.35
2016-08-23T03:41:48.847Z,1020.34
2016-08-23T03:42:48.823Z,1020.32
2016-08-23T03:43:48.845Z,1020.34
2016-08-23T03:44:48.770Z,1020.35
2016-08-23T03:45:48.860Z,1020.36
2016-08-23T03:46:48.782Z,1020.34
2016-08-23T03:47:48.833Z,1020.35
2016-08-23T03:48:48.794Z,1020.39
2016-08-23T03:49:48.802Z,1020.39
2016-08-23T03:50:48.896Z,1020.43
2016-08-23T03:51:48.899Z,1020.43
2016-08-23T03:52:48.823Z,1020.48
2016-08-23T03:53:48.830Z,1020.46
2016-08-23T03:54:48.889Z,1020.46
2016-08-23T03:55:48.901Z,1020.49
2016-08-23T03:56:48.849Z,1020.52
2016-08-23T03:57:48.860Z,1020.5
2016-08-23T03:58:48.913Z,1020.51
2016-08-23T03:59:48.956Z,1020.5
2016-08-23T04:00:48.877Z,1020.51
2016-08-23T04:01:48.934Z,1020.53
2016-08-23T04:02:48.893Z,1020.51
2016-08-23T04:03:48.905Z,1020.54
2016-08-23T04:04:48.980Z,1020.52
2016-08-23T04:05:48.913Z,1020.52
2016-08-23T04:06:49.005Z,1020.52
2016-08-23T04:07:48.923Z,1020.52
2016-08-23T04:08:49.043Z,1020.53
2016-08-23T04:09:48.939Z,1020.56
2016-08-23T04:10:48.945Z,1020.55
2016-08-23T04:11:48.951Z,1020.54
2016-08-23T04:12:48.959Z,1020.51
2016-08-23T04:13:49.017Z,1020.52
2016-08-23T04:14:48.970Z,1020.51
2016-08-23T04:15:49.078Z,1020.52
2016-08-23T04:16:48.983Z,1020.5
2016-08-23T04:17:48.992Z,1020.51
2016-08-23T04:18:48.998Z,1020.51
2016-08-23T04:19:49.056Z,1020.51
2016-08-23T04:20:49.097Z,1020.5
2016-08-23T04:21:49.019Z,1020.49
2016-08-23T04:22:49.069Z,1020.5
2016-08-23T04:23:49.032Z,1020.5
2016-08-23T04:24:49.096Z,1020.46
2016-08-23T04:25:49.047Z,1020.5
2016-08-23T04:26:49.086Z,1020.47
2016-08-23T04:27:49.134Z,1020.49
2016-08-23T04:28:49.068Z,1020.48
2016-08-23T04:29:49.074Z,1020.5
2016-08-23T04:30:49.089Z,1020.48
2016-08-23T04:31:49.111Z,1020.52
2016-08-23T04:32:49.092Z,1020.48
2016-08-23T04:33:49.127Z,1020.5
2016-08-23T04:34:49.108Z,1020.51
2016-08-23T04:35:49.115Z,1020.52
2016-08-23T04:36:49.120Z,1020.49
2016-08-23T04:37:49.178Z,1020.52
2016-08-23T04:38:49.133Z,1020.52
2016-08-23T04:39:49.192Z,1020.55
2016-08-23T04:40:49.148Z,1020.55
2016-08-23T04:41:49.155Z,1020.56
2016-08-23T04:42:49.163Z,1020.54
2016-08-23T04:43:49.168Z,1020.57
2016-08-23T04:44:49.180Z,1020.59
2016-08-23T04:45:49.182Z,1020.61
2016-08-23T04:46:49.293Z,1020.62
2016-08-23T04:47:49.295Z,1020.6
2016-08-23T04:48:49.203Z,1020.6
2016-08-23T04:49:49.208Z,1020.58
2016-08-23T04:50:49.218Z,1020.58
2016-08-23T04:51:49.296Z,1020.57
2016-08-23T04:52:49.235Z,1020.55
2016-08-23T04:53:49.324Z,1020.56
2016-08-23T04:54:49.320Z,1020.53
2016-08-23T04:55:49.300Z,1020.57
2016-08-23T04:56:49.261Z,1020.58
2016-08-23T04:57:49.281Z,1020.62
2016-08-23T04:58:49.271Z,1020.62
2016-08-23T04:59:49.359Z,1020.67
2016-08-23T05:00:49.342Z,1020.67
2016-08-23T05:01:49.342Z,1020.67
2016-08-23T05:02:49.299Z,1020.69
2016-08-23T05:03:49.386Z,1020.67
2016-08-23T05:04:49.311Z,1020.72
2016-08-23T05:05:49.319Z,1020.71
2016-08-23T05:06:49.391Z,1020.73
2016-08-23T05:07:49.332Z,1020.71
2016-08-23T05:08:49.441Z,1020.71
2016-08-23T05:09:49.372Z,1020.68
2016-08-23T05:10:49.352Z,1020.71
2016-08-23T05:11:49.361Z,1020.7
2016-08-23T05:12:49.471Z,1020.69
2016-08-23T05:13:49.437Z,1020.66
2016-08-23T05:14:49.461Z,1020.66
2016-08-23T05:15:49.444Z,1020.69
2016-08-23T05:16:49.463Z,1020.71
2016-08-23T05:17:49.401Z,1020.76
2016-08-23T05:18:49.409Z,1020.74
2016-08-23T05:19:49.512Z,1020.74
2016-08-23T05:20:49.421Z,1020.84
2016-08-23T05:21:49.429Z,1020.98
2016-08-23T05:22:50.468Z,1020.99
2016-08-23T05:23:49.482Z,1021.04
2016-08-23T05:24:49.450Z,1021.07
2016-08-23T05:25:49.509Z,1021.01
2016-08-23T05:26:49.547Z,1020.87
2016-08-23T05:27:49.535Z,1020.89
2016-08-23T05:28:49.482Z,1021.02
2016-08-23T05:29:49.489Z,1020.98
2016-08-23T05:30:49.604Z,1020.89
2016-08-23T05:31:49.504Z,1020.83
2016-08-23T05:32:49.513Z,1020.89
2016-08-23T05:33:49.522Z,1020.87
2016-08-23T05:34:49.530Z,1020.86
2016-08-23T05:35:49.537Z,1020.88
2016-08-23T05:36:49.545Z,1020.85
2016-08-23T05:37:49.553Z,1020.86
2016-08-23T05:38:49.611Z,1020.82
2016-08-23T05:39:49.628Z,1020.83
2016-08-23T05:40:49.670Z,1020.86
2016-08-23T05:41:49.584Z,1020.9
2016-08-23T05:42:49.592Z,1020.92
2016-08-23T05:43:49.669Z,1020.93
2016-08-23T05:44:49.605Z,1020.93
2016-08-23T05:45:49.611Z,1020.91
2016-08-23T05:46:49.620Z,1020.93
2016-08-23T05:47:49.627Z,1020.92
2016-08-23T05:48:49.635Z,1020.95
2016-08-23T05:49:49.639Z,1020.93
2016-08-23T05:50:49.649Z,1020.97
2016-08-23T05:51:49.656Z,1020.98
2016-08-23T05:52:49.663Z,1020.97
2016-08-23T05:53:49.669Z,1020.99
2016-08-23T05:54:49.756Z,1020.97
2016-08-23T05:55:49.685Z,1020.94
2016-08-23T05:56:49.691Z,1021.01
2016-08-23T05:57:49.719Z,1021.03
2016-08-23T05:58:49.725Z,1021.06
2016-08-23T05:59:49.713Z,1021.04
2016-08-23T06:00:49.719Z,1020.99
2016-08-23T06:01:49.758Z,1021.03
2016-08-23T06:02:49.824Z,1020.97
2016-08-23T06:03:49.843Z,1021
2016-08-23T06:04:49.749Z,1020.98
2016-08-23T06:05:49.803Z,1020.97
2016-08-23T06:06:49.763Z,1020.97
2016-08-23T06:07:49.770Z,1021.01
2016-08-23T06:08:49.776Z,1020.99
2016-08-23T06:09:49.783Z,1020.95
2016-08-23T06:10:49.792Z,1020.95
2016-08-23T06:11:49.873Z,1020.94
2016-08-23T06:12:49.806Z,1020.88
2016-08-23T06:13:49.855Z,1020.96
2016-08-23T06:14:49.818Z,1021.01
2016-08-23T06:15:49.824Z,1021
2016-08-23T06:16:49.833Z,1020.95
2016-08-23T06:17:49.840Z,1020.96
2016-08-23T06:18:49.845Z,1020.95
2016-08-23T06:19:49.853Z,1021
2016-08-23T06:20:49.859Z,1020.96
2016-08-23T06:21:51.098Z,1020.99
2016-08-23T06:22:49.872Z,1020.97
2016-08-23T06:23:49.878Z,1021.24
2016-08-23T06:24:49.889Z,1021.48
2016-08-23T06:25:49.896Z,1021.34
2016-08-23T06:26:49.902Z,1021.68
2016-08-23T06:27:49.959Z,1021.87
2016-08-23T06:28:49.917Z,1021.2
2016-08-23T06:29:49.943Z,1021.18
2016-08-23T06:30:49.933Z,1021.37
2016-08-23T06:31:49.941Z,1021.67
2016-08-23T06:32:49.949Z,1021.96
2016-08-23T06:33:49.957Z,1022.07
2016-08-23T06:34:49.966Z,1022.22
2016-08-23T06:35:49.975Z,1022.14
2016-08-23T06:36:50.076Z,1021.83
2016-08-23T06:37:50.081Z,1022.26
2016-08-23T06:38:50.003Z,1022.37
2016-08-23T06:39:50.012Z,1022.35
2016-08-23T06:40:50.020Z,1022.33
2016-08-23T06:41:50.032Z,1022.51
2016-08-23T06:42:50.082Z,1022.68
2016-08-23T06:43:50.100Z,1022.77
2016-08-23T06:44:50.061Z,1022.8
2016-08-23T06:45:50.122Z,1022.77
2016-08-23T06:46:50.080Z,1022.8
2016-08-23T06:47:50.090Z,1022.83
2016-08-23T06:48:50.109Z,1022.93
2016-08-23T06:49:50.161Z,1022.78
2016-08-23T06:50:50.121Z,1022.72
2016-08-23T06:51:50.221Z,1022.77
2016-08-23T06:52:50.141Z,1022.81
2016-08-23T06:53:50.152Z,1022.66
2016-08-23T06:54:50.212Z,1022.9
2016-08-23T06:55:50.172Z,1022.81
2016-08-23T06:56:50.181Z,1022.78
2016-08-23T06:57:50.193Z,1023.1
2016-08-23T06:58:50.204Z,1023.13
2016-08-23T06:59:50.267Z,1023.08
2016-08-23T07:00:50.298Z,1023.04
2016-08-23T07:01:50.234Z,1023
2016-08-23T07:02:50.243Z,1022.91
2016-08-23T07:03:50.254Z,1022.82
2016-08-23T07:04:50.265Z,1022.73
2016-08-23T07:05:50.274Z,1022.67
2016-08-23T07:06:50.286Z,1022.57
2016-08-23T07:07:50.297Z,1022.38
2016-08-23T07:08:50.416Z,1021.78
2016-08-23T07:09:50.365Z,1021.28
2016-08-23T07:10:50.404Z,1021.19
2016-08-23T07:11:50.338Z,1021.21
2016-08-23T07:12:50.446Z,1021.21
2016-08-23T07:13:50.356Z,1021.23
2016-08-23T07:14:50.367Z,1021.22
2016-08-23T07:15:50.374Z,1021.18
2016-08-23T07:16:50.384Z,1021.19
2016-08-23T07:17:50.392Z,1021.17
2016-08-23T07:18:50.402Z,1021.18
2016-08-23T07:19:50.410Z,1021.17
2016-08-23T07:20:50.420Z,1021.18
2016-08-23T07:21:50.430Z,1021.19
2016-08-23T07:22:50.435Z,1021.14
2016-08-23T07:23:50.520Z,1021.16
2016-08-23T07:24:50.451Z,1021.15
2016-08-23T07:25:50.462Z,1021.17
2016-08-23T07:26:50.557Z,1021.21
2016-08-23T07:27:50.478Z,1021.25
2016-08-23T07:28:50.485Z,1021.18
2016-08-23T07:29:50.492Z,1021.24
2016-08-23T07:30:50.501Z,1021.18
2016-08-23T07:31:50.507Z,1021.2
2016-08-23T07:32:50.586Z,1021.23
2016-08-23T07:33:50.522Z,1021.22
2016-08-23T07:34:50.530Z,1021.24
2016-08-23T07:35:50.536Z,1021.24
2016-08-23T07:36:50.629Z,1021.23
2016-08-23T07:37:50.601Z,1021.25
2016-08-23T07:38:50.559Z,1021.23
2016-08-23T07:39:50.564Z,1021.2
2016-08-23T07:40:50.572Z,1021.2
2016-08-23T07:41:50.580Z,1021.22
2016-08-23T07:42:50.585Z,1021.26
2016-08-23T07:44:59.675Z,1021.24
2016-08-23T07:45:59.685Z,1021.27
2016-08-23T07:46:59.689Z,1021.27
2016-08-23T07:47:59.693Z,1021.28
2016-08-23T07:48:59.700Z,1021.31
2016-08-23T07:49:59.708Z,1021.32
2016-08-23T07:50:59.765Z,1021.33
2016-08-23T07:51:59.720Z,1021.32
2016-08-23T07:52:59.728Z,1021.33
2016-08-23T07:53:59.783Z,1021.31
2016-08-23T07:54:59.739Z,1021.33
2016-08-23T07:55:59.744Z,1021.3
2016-08-23T07:56:59.750Z,1021.32
2016-08-23T07:57:59.759Z,1021.31
2016-08-23T07:58:59.761Z,1021.29
2016-08-23T07:59:59.770Z,1021.31
2016-08-23T08:00:59.775Z,1021.3
2016-08-23T08:01:59.782Z,1021.29
2016-08-23T08:02:59.787Z,1021.28
2016-08-23T08:03:59.793Z,1021.31
2016-08-23T08:04:59.798Z,1021.29
2016-08-23T08:05:59.803Z,1021.28
2016-08-23T08:06:59.809Z,1021.26
2016-08-23T08:07:59.815Z,1021.25
2016-08-23T08:08:59.820Z,1021.21
2016-08-23T08:09:59.825Z,1021.27
2016-08-23T08:10:59.832Z,1021.24
2016-08-23T08:11:59.837Z,1021.22
2016-08-23T08:12:59.841Z,1021.17
2016-08-23T08:13:59.847Z,1021.19
2016-08-23T08:14:59.852Z,1021.19
2016-08-23T08:15:59.857Z,1021.17
2016-08-23T08:16:59.863Z,1021.21
2016-08-23T08:17:59.869Z,1021.19
2016-08-23T08:18:59.873Z,1021.18
2016-08-23T08:19:59.879Z,1021.21
2016-08-23T08:20:59.883Z,1021.18
2016-08-23T08:21:59.888Z,1021.24
2016-08-23T08:22:59.894Z,1021.22
2016-08-23T08:23:59.900Z,1021.19
2016-08-23T08:24:59.905Z,1021.18
2016-08-23T08:25:59.910Z,1021.17
2016-08-23T08:26:59.916Z,1021.16
2016-08-23T08:27:59.920Z,1021.19
2016-08-23T08:28:59.928Z,1021.18
2016-08-23T08:29:59.934Z,1021.17
2016-08-23T08:30:59.945Z,1021.15
2016-08-23T08:31:59.944Z,1021.17
2016-08-23T08:32:59.950Z,1021.15
2016-08-23T08:33:59.957Z,1021.17
2016-08-23T08:34:59.963Z,1021.17
2016-08-23T08:35:59.968Z,1021.22
2016-08-23T08:36:59.975Z,1021.2
2016-08-23T08:37:59.983Z,1021.2
2016-08-23T08:38:59.988Z,1021.18
2016-08-23T08:40:00.744Z,1021.22
2016-08-23T08:41:00.001Z,1021.22
2016-08-23T08:42:00.056Z,1021.22
2016-08-23T08:43:00.019Z,1021.25
2016-08-23T08:44:00.069Z,1021.22
2016-08-23T08:45:00.027Z,1021.28
2016-08-23T08:46:00.033Z,1021.22
2016-08-23T08:47:00.039Z,1021.24
2016-08-23T08:48:00.047Z,1021.24
2016-08-23T08:49:00.053Z,1021.23
2016-08-23T08:50:00.059Z,1021.25
2016-08-23T08:51:00.467Z,1021.24
2016-08-23T08:52:00.072Z,1021.24
2016-08-23T08:53:00.080Z,1021.26
2016-08-23T08:54:00.087Z,1021.25
2016-08-23T08:55:00.095Z,1021.25
2016-08-23T08:56:00.099Z,1021.21
2016-08-23T08:57:00.106Z,1021.17
2016-08-23T08:58:00.114Z,1021.14
2016-08-23T08:59:00.133Z,1021.15
2016-08-23T09:00:00.126Z,1021.16
2016-08-23T09:01:00.131Z,1021.15
2016-08-23T09:02:00.237Z,1021.15
2016-08-23T09:03:00.194Z,1021.15
2016-08-23T09:04:00.152Z,1021.18
2016-08-23T09:05:00.158Z,1021.15
2016-08-23T09:06:00.163Z,1021.16
2016-08-23T09:07:00.169Z,1021.15
2016-08-23T09:08:00.174Z,1021.13
2016-08-23T09:09:00.179Z,1021.13
2016-08-23T09:10:00.187Z,1021.11
2016-08-23T09:11:00.193Z,1021.14
2016-08-23T09:12:00.197Z,1021.12
2016-08-23T09:13:00.205Z,1021.11
2016-08-23T09:14:00.262Z,1021.1
2016-08-23T09:15:00.289Z,1021.09
2016-08-23T09:16:00.222Z,1021.04
2016-08-23T09:17:00.230Z,1021.05
2016-08-23T09:18:00.237Z,1021.04
2016-08-23T09:19:00.242Z,1021.04
2016-08-23T09:20:00.248Z,1021.02
2016-08-23T09:21:00.254Z,1021.05
2016-08-23T09:22:00.261Z,1021.04
2016-08-23T09:23:00.267Z,1021.05
2016-08-23T09:24:00.274Z,1021.04
2016-08-23T09:25:00.278Z,1021.05
2016-08-23T09:26:01.236Z,1021.02
2016-08-23T09:27:00.292Z,1021.04
2016-08-23T09:28:00.296Z,1021.02
2016-08-23T09:29:00.303Z,1021.07
2016-08-23T09:30:00.309Z,1021.05
2016-08-23T09:31:00.315Z,1021.04
2016-08-23T09:32:00.323Z,1021.05
2016-08-23T09:33:00.329Z,1021.03
2016-08-23T09:34:00.335Z,1021.01
2016-08-23T09:35:00.340Z,1021.02
2016-08-23T09:36:00.347Z,1021.06
2016-08-23T09:37:01.252Z,1021.07
2016-08-23T09:38:00.359Z,1021.03
2016-08-23T09:39:00.364Z,1021.06
2016-08-23T09:40:00.373Z,1021.07
2016-08-23T09:41:00.377Z,1021.06
2016-08-23T09:42:00.384Z,1021.08
2016-08-23T09:43:00.393Z,1021.03
2016-08-23T09:44:00.399Z,1021
2016-08-23T09:45:00.404Z,1020.98
2016-08-23T09:46:00.411Z,1021
2016-08-23T09:47:00.417Z,1021
2016-08-23T09:48:00.822Z,1021.02
2016-08-23T09:49:00.434Z,1021.03
2016-08-23T09:50:00.437Z,1020.99
2016-08-23T09:51:00.443Z,1021.02
2016-08-23T09:52:00.447Z,1021.05
2016-08-23T09:53:00.502Z,1021.02
2016-08-23T09:54:00.463Z,1021.01
2016-08-23T09:55:00.468Z,1020.99
2016-08-23T09:56:00.471Z,1020.96
2016-08-23T09:57:00.480Z,1020.96
2016-08-23T09:58:00.486Z,1020.94
2016-08-23T09:59:00.546Z,1020.93
2016-08-23T10:00:00.499Z,1020.88
2016-08-23T10:01:00.505Z,1020.88
2016-08-23T10:02:00.562Z,1020.9
2016-08-23T10:03:00.519Z,1020.85
2016-08-23T10:04:00.523Z,1020.85
2016-08-23T10:05:00.530Z,1020.85
2016-08-23T10:06:00.539Z,1020.82
2016-08-23T10:07:00.544Z,1020.87
2016-08-23T10:08:00.552Z,1020.87
2016-08-23T10:09:00.558Z,1020.84
2016-08-23T10:10:00.567Z,1020.85
2016-08-23T10:11:00.572Z,1020.86
2016-08-23T10:12:00.577Z,1020.86
2016-08-23T10:13:00.583Z,1020.85
2016-08-23T10:14:00.592Z,1020.9
2016-08-23T10:15:00.598Z,1020.86
2016-08-23T10:16:00.604Z,1020.86
2016-08-23T10:17:00.611Z,1020.84
2016-08-23T10:18:00.617Z,1020.85
2016-08-23T10:19:00.625Z,1020.87
2016-08-23T10:20:00.632Z,1020.84
2016-08-23T10:21:00.639Z,1020.83
2016-08-23T10:22:00.644Z,1020.85
2016-08-23T10:23:00.700Z,1020.82
2016-08-23T10:24:00.657Z,1020.83
2016-08-23T10:25:00.661Z,1020.8
2016-08-23T10:26:00.675Z,1020.77
2016-08-23T10:27:00.675Z,1020.76
2016-08-23T10:28:00.685Z,1020.75
2016-08-23T10:29:00.689Z,1020.71
2016-08-23T10:30:00.696Z,1020.74
2016-08-23T10:31:00.704Z,1020.71
2016-08-23T10:32:00.760Z,1020.71
2016-08-23T10:33:00.722Z,1020.69
2016-08-23T10:34:00.724Z,1020.66
2016-08-23T10:35:00.733Z,1020.69
2016-08-23T10:36:00.742Z,1020.67
2016-08-23T10:37:00.742Z,1020.62
2016-08-23T10:38:00.750Z,1020.63
2016-08-23T10:39:00.756Z,1020.58
2016-08-23T10:40:00.763Z,1020.6
2016-08-23T10:41:00.770Z,1020.55
2016-08-23T10:42:01.275Z,1020.54
2016-08-23T10:43:00.783Z,1020.51
2016-08-23T10:44:00.788Z,1020.54
2016-08-23T10:45:00.798Z,1020.52
2016-08-23T10:46:00.802Z,1020.56
2016-08-23T10:47:00.814Z,1020.59
2016-08-23T10:48:00.816Z,1020.56
2016-08-23T10:49:00.873Z,1020.56
2016-08-23T10:50:00.833Z,1020.53
2016-08-23T10:51:00.837Z,1020.53
2016-08-23T10:52:00.850Z,1020.49
2016-08-23T10:53:00.852Z,1020.51
2016-08-23T10:54:00.861Z,1020.46
2016-08-23T10:55:00.866Z,1020.46
2016-08-23T10:56:00.874Z,1020.47
2016-08-23T10:57:00.882Z,1020.45
2016-08-23T10:58:00.889Z,1020.45
2016-08-23T10:59:00.896Z,1020.46
2016-08-23T11:00:00.903Z,1020.48
2016-08-23T11:01:00.912Z,1020.47
2016-08-23T11:02:00.916Z,1020.43
2016-08-23T11:03:00.927Z,1020.45
2016-08-23T11:04:00.933Z,1020.39
2016-08-23T11:05:00.941Z,1020.43
2016-08-23T11:06:00.964Z,1020.42
2016-08-23T11:07:00.973Z,1020.44
2016-08-23T11:08:00.962Z,1020.42
2016-08-23T11:09:00.970Z,1020.4
2016-08-23T11:10:01.025Z,1020.37
2016-08-23T11:11:00.985Z,1020.43
2016-08-23T11:12:00.992Z,1020.42
2016-08-23T11:13:01.002Z,1020.41
2016-08-23T11:15:01.015Z,1020.37
2016-08-23T11:16:01.021Z,1020.32
2016-08-23T11:17:01.028Z,1020.29
2016-08-23T11:18:01.037Z,1020.32
2016-08-23T11:19:01.045Z,1020.34
2016-08-23T11:20:01.051Z,1020.3
2016-08-23T11:21:01.057Z,1020.32
2016-08-23T11:22:01.065Z,1020.32
2016-08-23T11:23:01.074Z,1020.31
2016-08-23T11:24:01.080Z,1020.34
2016-08-23T11:25:01.689Z,1020.33
2016-08-23T11:26:01.144Z,1020.31
2016-08-23T11:27:01.100Z,1020.32
2016-08-23T11:28:01.108Z,1020.32
2016-08-23T11:29:01.116Z,1020.31
2016-08-23T11:30:01.123Z,1020.29
2016-08-23T11:31:01.129Z,1020.3
2016-08-23T11:32:01.189Z,1020.28
2016-08-23T11:33:01.146Z,1020.28
2016-08-23T11:34:01.152Z,1020.25
2016-08-23T11:35:01.160Z,1020.26
2016-08-23T11:36:01.318Z,1020.23
2016-08-23T11:37:01.175Z,1020.25
2016-08-23T11:38:01.181Z,1020.29
2016-08-23T11:39:01.190Z,1020.27
2016-08-23T11:40:01.202Z,1020.25
2016-08-23T11:41:01.205Z,1020.22
2016-08-23T11:42:01.210Z,1020.21
2016-08-23T11:43:01.217Z,1020.2
2016-08-23T11:44:01.275Z,1020.2
2016-08-23T11:45:01.234Z,1020.21
2016-08-23T11:46:01.241Z,1020.18
2016-08-23T11:47:01.248Z,1020.26
2016-08-23T11:48:01.255Z,1020.24
2016-08-23T11:49:01.263Z,1020.25
2016-08-23T11:50:01.270Z,1020.2
2016-08-23T11:51:01.276Z,1020.25
2016-08-23T11:52:01.285Z,1020.21
2016-08-23T11:53:01.293Z,1020.21
2016-08-23T11:54:01.299Z,1020.24
2016-08-23T11:55:01.356Z,1020.21
2016-08-23T11:56:01.315Z,1020.24
2016-08-23T11:57:01.321Z,1020.2
2016-08-23T11:58:01.328Z,1020.17
2016-08-23T11:59:01.337Z,1020.2
2016-08-23T12:00:01.344Z,1020.16
2016-08-23T12:01:01.351Z,1020.16
2016-08-23T12:02:01.359Z,1020.19
2016-08-23T12:03:01.366Z,1020.19
2016-08-23T12:04:01.378Z,1020.22
2016-08-23T12:05:01.379Z,1020.19
2016-08-23T12:06:01.390Z,1020.18
2016-08-23T12:07:01.397Z,1020.18
2016-08-23T12:08:01.455Z,1020.13
2016-08-23T12:09:01.413Z,1020.13
2016-08-23T12:10:01.421Z,1020.12
2016-08-23T12:11:02.426Z,1020.12
2016-08-23T12:12:01.433Z,1020.11